Time;durP1;ratioP1;P1;durP2;ratioP2;P2;SDS_P1;SDS_P2;PMS_P1;PMS_P2;Temp;Humidity;BMP_temperature;BMP_pressure;BME280_temperature;BME280_humidity;BME280_pressure;Samples;Min_cycle;Max_cycle;Signal;HPM_P1;HPM_P2
2020/12/30 00:01:51;;;;;;;12.45;4.60;;;;;;;-12.90;52.88;101702.56;4990057;28;20023;-82
2020/12/30 00:04:23;;;;;;;14.38;6.22;;;;;;;-10.44;51.91;102096.59;4992523;28;20038;-83
2020/12/30 00:06:53;;;;;;;18.50;6.35;;;;;;;-11.79;52.98;101954.34;4990522;28;20035;-83
2020/12/30 00:09:19;;;;;;;16.23;3.78;;;;;;;-11.34;53.72;102018.13;4990181;28;20042;-84
2020/12/30 00:11:48;;;;;;;13.48;4.72;;;;;;;-12.11;55.41;101986.16;4987305;28;20130;-83
2020/12/30 00:14:17;;;;;;;11.15;4.63;;;;;;;-13.42;54.34;101809.75;4987594;28;20030;-83
2020/12/30 00:16:44;;;;;;;3.65;2.13;;;;;;;-12.98;51.79;101776.69;4986666;28;20027;-83
2020/12/30 00:19:11;;;;;;;8.63;3.47;;;;;;;-11.37;52.22;102102.03;4987237;28;20041;-84
2020/12/30 00:21:42;;;;;;;6.85;2.75;;;;;;;-13.20;52.25;101815.03;4988083;28;20121;-83
2020/12/30 00:24:08;;;;;;;11.45;3.47;;;;;;;-12.17;52.69;101965.97;4987689;28;20039;-83
2020/12/30 00:26:37;;;;;;;5.03;2.43;;;;;;;-13.20;51.25;101706.59;4989783;28;20027;-82
2020/12/30 00:29:05;;;;;;;11.65;3.10;;;;;;;-11.35;52.25;102161.63;4989626;28;20027;-82
2020/12/30 00:31:35;;;;;;;6.40;3.20;;;;;;;-13.95;51.23;101605.28;5022614;28;20034;-84
2020/12/30 00:34:03;;;;;;;7.53;3.53;;;;;;;-14.37;50.50;101576.97;4992100;28;20038;-83
2020/12/30 00:36:39;;;;;;;8.02;4.35;;;;;;;-11.62;50.96;102067.56;4992377;28;20027;-83
2020/12/30 00:39:08;;;;;;;5.47;2.65;;;;;;;-11.06;50.69;102036.34;4989540;28;20082;-82
2020/12/30 00:41:37;;;;;;;3.53;1.90;;;;;;;-10.82;50.69;102167.16;4987426;28;20023;-83
2020/12/30 00:44:08;;;;;;;5.13;2.47;;;;;;;-11.22;50.55;102137.88;4987989;28;20034;-83
2020/12/30 00:46:38;;;;;;;14.52;4.53;;;;;;;-14.68;50.52;101486.13;5021605;28;20026;-83
2020/12/30 00:49:08;;;;;;;6.20;2.58;;;;;;;-13.77;49.82;101650.63;5022436;28;21126;-83
2020/12/30 00:51:37;;;;;;;8.70;3.15;;;;;;;-12.84;50.27;101821.41;4988779;28;20038;-83
2020/12/30 00:54:08;;;;;;;8.25;3.55;;;;;;;-12.04;48.45;101915.50;4988732;28;20035;-83
2020/12/30 00:56:36;;;;;;;10.32;3.85;;;;;;;-12.10;48.02;101889.09;4990248;28;20027;-83
2020/12/30 00:59:03;;;;;;;6.55;2.72;;;;;;;-13.48;48.47;101757.66;5007101;28;20026;-83
2020/12/30 01:01:32;;;;;;;10.82;3.42;;;;;;;-11.79;49.74;102028.31;5008007;28;20039;-84
2020/12/30 01:04:10;;;;;;;14.15;4.78;;;;;;;-12.95;48.75;101760.56;5009893;28;20102;-83
2020/12/30 01:06:39;;;;;;;6.68;3.35;;;;;;;-13.10;48.89;101747.00;4994719;28;20027;-84
2020/12/30 01:09:09;;;;;;;15.80;2.80;;;;;;;-10.74;47.66;102113.28;4993609;28;20033;-83
2020/12/30 01:11:53;;;;;;;12.65;4.40;;;;;;;-11.61;48.57;101935.72;4991456;28;20070;-83
2020/12/30 01:14:35;;;;;;;13.10;3.25;;;;;;;-10.93;47.24;101990.25;5023199;28;20488;-83
2020/12/30 01:17:03;;;;;;;8.98;3.92;;;;;;;-11.33;48.16;101953.03;4978970;28;20041;-83
2020/12/30 01:19:30;;;;;;;10.57;4.72;;;;;;;-13.40;47.95;101640.91;4989603;28;20042;-83
2020/12/30 01:22:00;;;;;;;15.05;5.70;;;;;;;-12.06;47.54;101786.53;4991921;28;20074;-83
2020/12/30 01:24:31;;;;;;;11.20;4.40;;;;;;;-12.28;49.26;101814.31;4991633;28;20039;-82
2020/12/30 01:27:04;;;;;;;10.25;4.28;;;;;;;-10.32;47.76;102112.00;5007348;28;20122;-83
2020/12/30 01:29:36;;;;;;;13.80;4.25;;;;;;;-11.03;49.71;102112.91;4990599;28;20027;-82
2020/12/30 01:32:03;;;;;;;10.02;4.05;;;;;;;-14.58;48.23;101492.75;4989448;28;20058;-84
2020/12/30 01:34:41;;;;;;;6.30;2.50;;;;;;;-12.65;47.70;101760.03;4991170;28;20389;-83
2020/12/30 01:37:08;;;;;;;7.38;3.35;;;;;;;-10.64;46.64;102093.13;5025622;28;20010;-83
2020/12/30 01:39:38;;;;;;;5.93;3.15;;;;;;;-12.06;46.29;101797.22;4991474;28;20034;-82
2020/12/30 01:42:09;;;;;;;11.93;3.38;;;;;;;-11.93;48.96;101914.09;4990913;28;20034;-82
2020/12/30 01:44:37;;;;;;;14.00;4.07;;;;;;;-10.98;48.92;102030.63;4991250;28;20026;-83
2020/12/30 01:47:05;;;;;;;7.53;3.15;;;;;;;-11.92;48.78;101879.28;4991322;28;20027;-83
2020/12/30 01:49:32;;;;;;;7.95;3.78;;;;;;;-11.60;49.22;101916.06;4990482;28;20042;-83
2020/12/30 01:52:01;;;;;;;20.08;5.40;;;;;;;-12.97;48.69;101773.13;4988947;28;20038;-83
2020/12/30 01:54:35;;;;;;;15.63;4.53;;;;;;;-12.11;48.88;101868.69;4973273;28;20062;-82
2020/12/30 01:57:04;;;;;;;17.77;3.45;;;;;;;-12.67;48.40;101725.44;4990791;28;20030;-83
2020/12/30 01:59:31;;;;;;;12.35;4.88;;;;;;;-12.06;48.80;101857.78;4989108;28;20054;-83
2020/12/30 02:02:06;;;;;;;7.88;4.05;;;;;;;-11.57;48.53;101930.13;4989357;28;20033;-83
2020/12/30 02:04:48;;;;;;;22.02;4.72;;;;;;;-12.21;47.13;101697.38;4990872;28;20093;-83
2020/12/30 02:07:17;;;;;;;8.23;3.97;;;;;;;-10.60;47.15;102073.28;4990058;28;20030;-83
2020/12/30 02:09:45;;;;;;;6.35;3.08;;;;;;;-10.49;45.84;102080.78;4990983;28;20118;-83
2020/12/30 02:12:15;;;;;;;;;;;;;;;-10.64;45.38;102061.00;4989810;28;20034;-83
2020/12/30 02:14:42;;;;;;;2.80;2.05;;;;;;;-12.11;44.67;101914.06;4988983;28;20000;-83
2020/12/30 02:17:15;;;;;;;6.70;2.38;;;;;;;-12.64;45.50;101857.81;5005415;28;20030;-83
2020/12/30 02:19:47;;;;;;;4.57;2.28;;;;;;;-13.26;45.97;101725.53;4989938;28;20027;-82
2020/12/30 02:22:25;;;;;;;4.72;2.42;;;;;;;-13.56;45.96;101760.66;4990910;28;20496;-83
2020/12/30 02:24:52;;;;;;;4.05;1.67;;;;;;;-10.84;45.69;102095.97;4988982;28;20062;-83
2020/12/30 02:27:22;;;;;;;6.97;3.15;;;;;;;-11.15;46.78;102055.53;4998279;28;20138;-83
2020/12/30 02:29:50;;;;;;;7.55;3.88;;;;;;;-12.56;47.77;101901.00;4987402;28;20034;-83
2020/12/30 02:32:18;;;;;;;17.20;3.15;;;;;;;-13.71;47.04;101645.03;4988764;28;21135;-83
2020/12/30 02:34:49;;;;;;;3.58;2.72;;;;;;;-15.15;44.82;101464.22;4987838;28;20027;-83
2020/12/30 02:37:16;;;;;;;13.20;2.80;;;;;;;-14.78;45.73;101451.13;4989904;28;20030;-83
2020/12/30 02:39:45;;;;;;;4.18;2.60;;;;;;;-12.19;44.36;101793.44;4991970;28;20031;-83
2020/12/30 02:42:17;;;;;;;8.77;3.05;;;;;;;-11.51;45.32;101936.97;4991806;28;20027;-83
2020/12/30 02:44:44;;;;;;;;;;;;;;;-10.84;45.42;102063.84;4993171;28;20038;-84
2020/12/30 02:47:11;;;;;;;16.80;5.95;;;;;;;-12.18;45.17;101765.78;4992323;28;19910;-84
2020/12/30 02:49:38;;;;;;;7.75;2.97;;;;;;;-12.65;44.72;101672.00;4992162;28;20039;-83
2020/12/30 02:52:09;;;;;;;9.75;3.65;;;;;;;-11.50;42.72;101957.41;4991830;28;20077;-83
2020/12/30 02:54:39;;;;;;;3.15;2.05;;;;;;;-14.63;42.78;101460.16;4990140;28;20083;-82
2020/12/30 02:57:06;;;;;;;5.50;2.33;;;;;;;-14.58;41.60;101483.88;4989652;28;20066;-82
2020/12/30 02:59:35;;;;;;;11.90;3.28;;;;;;;-13.46;43.56;101696.31;4988264;28;20062;-82
2020/12/30 03:02:11;;;;;;;6.45;3.08;;;;;;;-15.03;43.57;101407.03;4988719;28;20444;-83
2020/12/30 03:04:39;;;;;;;10.40;3.28;;;;;;;-13.23;43.83;101682.75;4988200;28;20070;-83
2020/12/30 03:07:09;;;;;;;9.00;4.60;;;;;;;-14.73;43.64;101496.94;4988422;28;20027;-83
2020/12/30 03:09:36;;;;;;;;;;;;;;;-11.32;43.95;102043.88;5000579;28;20103;-84
2020/12/30 03:12:03;;;;;;;7.72;1.45;;;;;;;-11.54;42.94;101913.06;5020802;28;19937;-83
2020/12/30 03:14:29;;;;;;;7.00;3.05;;;;;;;-13.12;42.70;101692.03;4981574;28;20027;-83
2020/12/30 03:16:57;;;;;;;9.57;3.00;;;;;;;-13.70;43.87;101652.06;4980108;28;20027;-83
2020/12/30 03:19:27;;;;;;;2.72;1.35;;;;;;;-11.97;44.13;101868.84;4987707;28;20031;-83
2020/12/30 03:21:56;;;;;;;10.40;4.57;;;;;;;-10.95;42.88;102067.91;4988008;28;20015;-84
2020/12/30 03:24:24;;;;;;;7.30;2.20;;;;;;;-12.93;43.08;101660.00;4988277;28;20101;-83
2020/12/30 03:26:59;;;;;;;14.88;4.45;;;;;;;-10.57;43.64;101996.44;4992855;28;20081;-83
2020/12/30 03:29:36;;;;;;;7.97;3.13;;;;;;;-12.15;43.69;101829.69;4990894;28;20034;-83
2020/12/30 03:32:03;;;;;;;14.60;4.45;;;;;;;-10.59;42.82;102020.59;4992227;28;20086;-83
2020/12/30 03:34:49;;;;;;;5.95;2.78;;;;;;;-12.69;42.12;101755.78;4993008;28;20037;-83
2020/12/30 03:37:16;;;;;;;11.95;3.97;;;;;;;-12.05;43.84;101865.72;4991121;28;20130;-83
2020/12/30 03:39:43;;;;;;;5.28;3.15;;;;;;;-12.15;43.76;101806.56;4992700;28;20030;-83
2020/12/30 03:42:10;;;;;;;16.70;3.22;;;;;;;-12.00;44.33;101910.84;4991002;28;20081;-83
2020/12/30 03:44:40;;;;;;;6.07;1.92;;;;;;;-13.27;44.81;101632.34;4990686;28;20062;-82
2020/12/30 03:47:07;;;;;;;5.30;2.10;;;;;;;-11.01;43.91;102030.75;4992771;28;20011;-82
2020/12/30 03:49:34;;;;;;;7.22;2.70;;;;;;;-13.94;44.26;101532.44;4994374;28;20069;-82
2020/12/30 03:52:03;;;;;;;5.10;2.13;;;;;;;-12.06;44.90;101753.63;4993429;28;20094;-83
2020/12/30 03:54:33;;;;;;;24.27;4.47;;;;;;;-13.39;44.81;101634.63;4994050;28;20090;-82
2020/12/30 03:57:00;;;;;;;3.53;2.95;;;;;;;-11.33;44.33;101956.56;4992568;28;20042;-83
2020/12/30 03:59:27;;;;;;;5.07;2.25;;;;;;;-13.13;44.73;101607.66;4991414;28;20488;-82
2020/12/30 04:01:55;;;;;;;12.25;3.67;;;;;;;-13.68;44.22;101527.69;4991266;28;20041;-83
2020/12/30 04:04:22;;;;;;;4.80;3.15;;;;;;;-10.56;43.12;101979.41;4991855;28;20467;-83
2020/12/30 04:06:49;;;;;;;9.10;3.35;;;;;;;-12.21;43.80;101771.28;4991143;28;20793;-83
2020/12/30 04:09:16;;;;;;;5.22;2.78;;;;;;;-11.77;43.41;101722.69;4992343;28;20034;-83
2020/12/30 04:11:46;;;;;;;8.07;3.85;;;;;;;-13.85;43.41;101487.69;4992562;28;20026;-83
2020/12/30 04:14:15;;;;;;;26.77;4.93;;;;;;;-12.61;43.39;101736.75;4991068;28;20034;-83
2020/12/30 04:16:43;;;;;;;11.55;3.33;;;;;;;-11.70;43.70;101921.84;4991740;28;20029;-82
2020/12/30 04:19:10;;;;;;;15.27;3.25;;;;;;;-14.22;44.00;101416.63;5022300;28;20043;-82
2020/12/30 04:21:37;;;;;;;6.93;3.42;;;;;;;-12.93;45.47;101684.00;4990114;28;20026;-83
2020/12/30 04:24:05;;;;;;;11.77;3.40;;;;;;;-11.68;44.25;101783.69;4987359;28;20042;-82
2020/12/30 04:26:33;;;;;;;17.60;3.47;;;;;;;-12.03;44.54;101740.97;4988104;28;20041;-83
2020/12/30 04:29:08;;;;;;;7.20;4.28;;;;;;;-11.03;43.96;101898.91;4990326;28;20023;-82
2020/12/30 04:31:39;;;;;;;7.25;2.08;;;;;;;-13.50;44.86;101541.06;4989902;28;20050;-83
2020/12/30 04:34:10;;;;;;;8.63;2.78;;;;;;;-10.39;45.02;101965.97;4991472;28;20019;-83
2020/12/30 04:36:48;;;;;;;4.53;2.33;;;;;;;-12.61;46.09;101571.34;4992524;28;20027;-83
2020/12/30 04:39:16;;;;;;;8.48;3.28;;;;;;;-11.97;46.39;101731.75;5010050;28;20027;-82
2020/12/30 04:41:49;;;;;;;11.57;2.63;;;;;;;-13.86;45.97;101382.13;4992710;28;20082;-83
2020/12/30 04:44:27;;;;;;;14.10;3.60;;;;;;;-11.53;47.30;101762.47;4992487;28;20126;-82
2020/12/30 04:47:03;;;;;;;13.80;5.22;;;;;;;-10.34;49.05;101987.16;4994558;28;20031;-83
2020/12/30 04:49:36;;;;;;;6.20;3.42;;;;;;;-11.57;48.79;101771.56;5008448;28;20046;-83
2020/12/30 04:52:04;;;;;;;6.90;3.30;;;;;;;-13.81;46.52;101494.59;4992957;28;20045;-83
2020/12/30 04:54:51;;;;;;;6.93;3.05;;;;;;;-10.93;47.49;101894.81;4992475;28;20034;-83
2020/12/30 04:57:39;;;;;;;3.65;2.85;;;;;;;-10.67;45.96;101945.19;5009129;28;20027;-83
2020/12/30 05:00:09;;;;;;;8.13;3.20;;;;;;;-11.72;46.55;101837.38;4990675;28;20031;-82
2020/12/30 05:02:49;;;;;;;13.45;3.63;;;;;;;-11.29;46.85;101845.81;4989933;28;20027;-82
2020/12/30 05:05:17;;;;;;;6.82;4.63;;;;;;;-12.17;47.56;101688.28;4989406;28;20050;-83
2020/12/30 05:07:46;;;;;;;8.05;4.60;;;;;;;-11.07;46.97;101833.16;4990195;28;20030;-83
2020/12/30 05:10:17;;;;;;;10.32;4.18;;;;;;;-14.05;47.97;101415.84;4989650;28;20046;-82
2020/12/30 05:12:48;;;;;;;8.80;3.50;;;;;;;-11.38;48.11;101776.81;4985219;28;20050;-83
2020/12/30 05:15:15;;;;;;;8.13;3.15;;;;;;;-10.47;48.12;101978.97;4990366;28;20403;-83
2020/12/30 05:17:43;;;;;;;13.63;3.60;;;;;;;-10.84;46.08;101853.31;4993605;28;20027;-83
2020/12/30 05:20:11;;;;;;;7.78;3.53;;;;;;;-12.13;46.95;101707.69;4992806;28;20118;-83
2020/12/30 05:22:40;;;;;;;8.48;3.97;;;;;;;-11.24;45.48;101938.34;4991884;28;20039;-82
2020/12/30 05:25:07;;;;;;;9.23;3.28;;;;;;;-12.99;46.21;101614.97;4990783;28;20030;-83
2020/12/30 05:27:37;;;;;;;5.53;2.50;;;;;;;-11.86;45.89;101740.09;4989739;28;20073;-82
2020/12/30 05:30:06;;;;;;;7.22;2.75;;;;;;;-12.31;46.82;101632.91;4990029;28;20054;-82
2020/12/30 05:32:37;;;;;;;18.88;3.38;;;;;;;-13.30;47.26;101462.78;4991496;28;20119;-82
2020/12/30 05:35:07;;;;;;;7.78;3.75;;;;;;;-10.05;47.01;101972.16;4993072;28;20023;-83
2020/12/30 05:37:40;;;;;;;3.13;1.95;;;;;;;-10.75;46.59;101860.81;4989337;28;20043;-83
2020/12/30 05:40:31;;;;;;;6.80;2.20;;;;;;;-13.35;44.30;101433.72;4992734;28;20041;-83
2020/12/30 05:43:16;;;;;;;5.57;3.05;;;;;;;-11.89;45.04;101752.75;4990928;28;20089;-83
2020/12/30 05:45:54;;;;;;;7.00;2.90;;;;;;;-10.33;45.94;101959.44;4987604;28;20019;-82
2020/12/30 05:48:25;;;;;;;;;;;;;;;-9.82;44.55;101978.03;4992143;28;20031;-84
2020/12/30 05:50:56;;;;;;;7.28;2.83;;;;;;;-11.77;46.53;101765.44;4990452;28;20295;-82
2020/12/30 05:53:26;;;;;;;7.25;3.80;;;;;;;-12.11;45.60;101617.69;4988922;28;20030;-83
2020/12/30 05:56:15;;;;;;;4.40;2.83;;;;;;;-11.70;43.98;101670.66;4984420;28;20018;-82
2020/12/30 05:58:49;;;;;;;3.78;1.95;;;;;;;-13.46;45.33;101403.25;4985945;28;20034;-83
2020/12/30 06:01:29;;;;;;;6.07;2.90;;;;;;;-11.57;45.40;101801.84;4991419;28;20396;-83
2020/12/30 06:04:19;;;;;;;14.02;5.15;;;;;;;-10.73;45.06;101858.06;4990592;28;20027;-82
2020/12/30 06:06:52;;;;;;;15.95;3.42;;;;;;;-12.28;44.83;101567.84;4992194;28;20043;-82
2020/12/30 06:09:23;;;;;;;9.40;2.58;;;;;;;-11.57;45.92;101707.44;4992800;28;20078;-83
2020/12/30 06:11:58;;;;;;;15.38;5.35;;;;;;;-11.33;46.80;101758.72;4974493;28;20066;-82
2020/12/30 06:14:28;;;;;;;13.60;4.68;;;;;;;-10.15;46.04;101970.94;4991786;28;20038;-82
2020/12/30 06:17:02;;;;;;;5.53;2.30;;;;;;;-12.92;46.01;101553.28;4990194;28;20168;-82
2020/12/30 06:19:35;;;;;;;9.95;4.03;;;;;;;-11.22;45.96;101754.59;4989609;28;20047;-82
2020/12/30 06:22:07;;;;;;;8.00;3.25;;;;;;;-11.44;47.23;101750.41;4972373;28;20074;-83
2020/12/30 06:24:35;;;;;;;6.40;3.25;;;;;;;-10.34;46.08;101899.63;4988615;28;20061;-83
2020/12/30 06:27:20;;;;;;;7.45;3.30;;;;;;;-12.52;45.64;101598.41;4989850;28;20125;-83
2020/12/30 06:30:00;;;;;;;6.53;3.58;;;;;;;-14.02;47.33;101311.88;4988666;28;20034;-82
2020/12/30 06:32:35;;;;;;;;;;;;;;;-9.88;46.69;101998.97;4988465;28;20039;-82
2020/12/30 06:35:04;;;;;;;9.60;3.42;;;;;;;-11.75;46.59;101679.88;4989747;28;19996;-82
2020/12/30 06:37:35;;;;;;;9.20;4.20;;;;;;;-11.94;46.63;101704.91;4990054;28;20027;-83
2020/12/30 06:40:22;;;;;;;10.38;3.67;;;;;;;-9.90;47.26;102007.09;4987647;28;20065;-82
2020/12/30 06:42:56;;;;;;;8.07;2.22;;;;;;;-12.80;46.66;101604.25;4986961;28;20035;-83
2020/12/30 06:45:49;;;;;;;17.55;3.88;;;;;;;-10.04;47.36;102005.19;5021024;28;20031;-83
2020/12/30 06:48:18;;;;;;;5.03;2.35;;;;;;;-11.28;46.72;101782.53;4989673;28;20023;-82
2020/12/30 06:50:45;;;;;;;12.18;3.88;;;;;;;-12.91;47.13;101535.47;4988130;28;20022;-83
2020/12/30 06:53:32;;;;;;;13.05;4.60;;;;;;;-11.28;47.06;101803.94;4988474;28;20054;-82
2020/12/30 06:56:03;;;;;;;7.70;2.50;;;;;;;-10.18;46.55;101912.16;5006596;28;20023;-83
2020/12/30 06:58:49;;;;;;;11.00;3.70;;;;;;;-11.13;46.46;101821.81;4991877;28;20031;-83
2020/12/30 07:01:22;;;;;;;11.18;3.15;;;;;;;-11.23;45.53;101699.38;4993463;28;20030;-83
2020/12/30 07:03:50;;;;;;;3.78;2.03;;;;;;;-9.96;45.37;101951.16;4993402;28;20031;-83
2020/12/30 07:06:27;;;;;;;6.00;2.35;;;;;;;-10.60;44.90;101843.06;4994029;28;20069;-83
2020/12/30 07:08:59;;;;;;;8.10;2.92;;;;;;;-9.50;44.60;102069.19;4993033;28;20094;-83
2020/12/30 07:11:43;;;;;;;5.30;2.55;;;;;;;-13.59;44.65;101418.97;4991702;28;20073;-82
2020/12/30 07:14:28;;;;;;;5.45;3.65;;;;;;;-12.13;45.63;101630.25;5005282;28;20050;-82
2020/12/30 07:17:03;;;;;;;6.82;2.63;;;;;;;-11.01;46.00;101822.09;5005812;28;20092;-82
2020/12/30 07:19:37;;;;;;;9.50;2.80;;;;;;;-11.28;46.05;101830.66;5023304;28;20030;-82
2020/12/30 07:22:07;;;;;;;17.02;4.90;;;;;;;-13.27;44.40;101459.94;5022291;28;20039;-82
2020/12/30 07:24:40;;;;;;;3.40;1.38;;;;;;;-11.20;44.80;101831.13;4988326;28;20035;-82
2020/12/30 07:27:12;;;;;;;8.13;2.78;;;;;;;-13.03;45.14;101512.09;4989183;28;20102;-83
2020/12/30 07:29:42;;;;;;;8.87;4.10;;;;;;;-11.63;46.43;101767.41;4991065;28;20050;-83
2020/12/30 07:32:09;;;;;;;;;;;;;;;-9.74;46.86;102054.50;4989500;28;20414;-82
2020/12/30 07:34:50;;;;;;;6.85;3.20;;;;;;;-11.58;46.38;101732.44;4990375;28;19946;-83
2020/12/30 07:37:22;;;;;;;4.80;3.10;;;;;;;-10.11;47.11;101950.22;5002257;28;20043;-83
2020/12/30 07:39:50;;;;;;;14.30;3.85;;;;;;;-11.78;47.63;101778.91;4990571;28;20030;-82
2020/12/30 07:42:20;;;;;;;6.18;2.75;;;;;;;-10.85;48.72;101974.66;4988653;28;20396;-82
2020/12/30 07:44:53;;;;;;;13.48;4.30;;;;;;;-12.06;47.21;101722.47;5020847;28;20034;-83
2020/12/30 07:47:23;;;;;;;11.00;4.05;;;;;;;-10.43;47.52;101956.41;4990352;28;20498;-83
2020/12/30 07:49:51;;;;;;;;;;;;;;;-9.97;47.71;102062.84;4972266;28;20038;-82
2020/12/30 07:52:18;;;;;;;30.70;4.20;;;;;;;-12.20;46.75;101714.28;4988638;28;19914;-82
2020/12/30 07:54:46;;;;;;;10.93;3.15;;;;;;;-10.85;46.96;101958.59;4984677;28;20121;-83
2020/12/30 07:57:14;;;;;;;9.45;3.05;;;;;;;-12.99;46.99;101577.66;4984094;28;20117;-83
2020/12/30 07:59:50;;;;;;;12.18;2.90;;;;;;;-11.96;46.78;101746.81;4993773;28;20038;-83
2020/12/30 08:02:24;;;;;;;19.38;3.20;;;;;;;-11.82;47.58;101843.16;4990813;28;20031;-82
2020/12/30 08:05:01;;;;;;;20.55;7.97;;;;;;;-12.13;47.93;101761.94;4989944;28;20043;-83
2020/12/30 08:07:29;;;;;;;4.15;2.92;;;;;;;-13.98;47.72;101479.44;4991496;28;20034;-82
2020/12/30 08:10:00;;;;;;;7.03;2.63;;;;;;;-12.33;47.33;101709.56;4990658;28;20041;-83
2020/12/30 08:12:27;;;;;;;10.73;5.35;;;;;;;-12.50;47.80;101753.09;5009281;28;20121;-83
2020/12/30 08:14:54;;;;;;;5.97;3.10;;;;;;;-11.83;46.93;101784.47;4992821;28;20034;-83
2020/12/30 08:17:22;;;;;;;12.73;4.15;;;;;;;-12.45;48.66;101768.88;4992394;28;20062;-83
2020/12/30 08:19:52;;;;;;;9.23;3.85;;;;;;;-11.55;48.76;101908.66;5024595;28;20030;-83
2020/12/30 08:22:21;;;;;;;3.65;2.13;;;;;;;-12.29;47.73;101759.19;4991066;28;20045;-83
2020/12/30 08:24:51;;;;;;;6.80;3.67;;;;;;;-12.68;48.33;101677.47;4992321;28;20038;-83
2020/12/30 08:27:24;;;;;;;10.60;2.58;;;;;;;-10.04;48.60;102123.94;4993093;28;20038;-83
2020/12/30 08:29:58;;;;;;;13.40;4.35;;;;;;;-12.49;48.47;101676.56;4993752;28;20043;-83
2020/12/30 08:32:35;;;;;;;15.53;9.27;;;;;;;-10.05;49.95;102122.19;4993324;28;20094;-83
2020/12/30 08:35:14;;;;;;;10.27;2.80;;;;;;;-11.27;49.39;101944.69;5006762;28;20274;-82
2020/12/30 08:37:45;;;;;;;7.63;3.78;;;;;;;-11.71;48.82;101845.28;4989791;28;20039;-83
2020/12/30 08:40:28;;;;;;;7.43;3.08;;;;;;;-12.74;47.79;101757.81;4987859;28;20035;-83
2020/12/30 08:43:15;;;;;;;5.03;2.20;;;;;;;-10.36;48.74;102139.88;4990944;28;20049;-83
2020/12/30 08:45:49;;;;;;;5.70;2.80;;;;;;;-10.38;48.50;102147.13;5008323;28;20035;-83
2020/12/30 08:48:23;;;;;;;6.45;3.17;;;;;;;-13.12;48.51;101742.69;5008579;28;20058;-83
2020/12/30 08:50:50;;;;;;;7.25;2.97;;;;;;;-12.16;48.91;101881.38;5008594;28;20041;-83
2020/12/30 08:53:39;;;;;;;6.85;3.63;;;;;;;-10.54;49.22;102189.06;4991771;28;20030;-83
2020/12/30 08:56:19;;;;;;;6.57;3.07;;;;;;;-14.23;50.15;101561.25;5025303;28;20102;-82
2020/12/30 08:58:56;;;;;;;6.93;2.90;;;;;;;-13.74;50.04;101583.88;4993613;28;20018;-82
2020/12/30 09:01:28;;;;;;;4.25;2.92;;;;;;;-10.50;50.28;102089.75;4992149;28;20019;-83
2020/12/30 09:04:13;;;;;;;6.70;2.80;;;;;;;-11.19;50.39;102028.06;4990790;28;20042;-83
2020/12/30 09:06:41;;;;;;;4.65;1.95;;;;;;;-10.52;50.58;102197.88;4989849;28;20026;-83
2020/12/30 09:09:18;;;;;;;9.02;3.63;;;;;;;-10.59;50.52;102143.75;5007418;28;20007;-83
2020/12/30 09:11:49;;;;;;;12.40;3.83;;;;;;;-12.90;50.57;101766.56;4991968;28;20121;-83
2020/12/30 09:14:21;;;;;;;9.90;2.75;;;;;;;-12.46;50.85;101833.84;4990396;28;20054;-83
2020/12/30 09:17:02;;;;;;;5.90;3.05;;;;;;;-11.05;51.07;102104.94;4985771;28;20034;-82
2020/12/30 09:19:32;;;;;;;8.13;4.60;;;;;;;-12.23;51.31;101862.97;4985370;28;20034;-82
2020/12/30 09:22:16;;;;;;;6.30;2.45;;;;;;;-11.98;49.98;101912.53;4989644;28;20085;-82
2020/12/30 09:24:46;;;;;;;8.43;2.25;;;;;;;-10.57;50.48;102199.91;4991568;28;20053;-83
2020/12/30 09:27:29;;;;;;;8.30;2.95;;;;;;;-11.87;51.02;101975.22;4987841;28;20039;-83
2020/12/30 09:30:17;;;;;;;7.00;3.13;;;;;;;-10.48;51.30;102159.25;4990579;28;20023;-83
2020/12/30 09:32:49;;;;;;;12.15;3.50;;;;;;;-12.62;51.28;101797.22;4972348;28;20109;-82
2020/12/30 09:35:30;;;;;;;7.22;3.90;;;;;;;-12.94;50.98;101719.63;4991488;28;20038;-83
2020/12/30 09:38:22;;;;;;;13.57;3.55;;;;;;;-11.20;51.96;102010.28;4991916;28;20035;-83
2020/12/30 09:40:52;;;;;;;7.95;3.22;;;;;;;-11.64;51.02;101997.31;4989809;28;20035;-83
2020/12/30 09:43:22;;;;;;;4.68;2.28;;;;;;;-12.48;51.42;101838.41;5005497;28;20027;-82
2020/12/30 09:45:50;;;;;;;;;;;;;;;-10.51;51.99;102188.88;4987290;28;20101;-82
2020/12/30 09:48:23;;;;;;;3.53;1.02;;;;;;;-11.37;50.67;102019.16;4987292;28;19989;-82
2020/12/30 09:50:54;;;;;;;3.95;1.95;;;;;;;-11.38;52.29;102091.44;4988562;28;20043;-83
2020/12/30 09:53:23;;;;;;;11.75;4.00;;;;;;;-12.08;51.87;101975.34;5006539;28;20049;-82
2020/12/30 09:55:57;;;;;;;4.72;3.38;;;;;;;-12.88;51.29;101820.69;4975027;28;20480;-83
2020/12/30 09:58:27;;;;;;;5.90;3.22;;;;;;;-13.45;51.10;101793.97;4991554;28;20031;-83
2020/12/30 10:01:01;;;;;;;15.75;4.40;;;;;;;-13.53;51.56;101783.63;4989741;28;20077;-82
2020/12/30 10:03:44;;;;;;;9.73;4.07;;;;;;;-12.21;51.41;101975.06;5005833;28;20039;-82
2020/12/30 10:06:17;;;;;;;11.77;3.33;;;;;;;-14.07;51.96;101675.00;5021947;28;20062;-83
2020/12/30 10:08:49;;;;;;;7.90;3.13;;;;;;;-14.21;52.25;101672.97;4990132;28;20027;-82
2020/12/30 10:11:19;;;;;;;9.27;3.03;;;;;;;-12.10;52.66;102019.94;4990464;28;20057;-82
2020/12/30 10:13:52;;;;;;;;;;;;;;;-10.91;52.79;102235.38;4987010;28;20026;-82
2020/12/30 10:16:27;;;;;;;4.50;2.72;;;;;;;-11.11;53.37;102239.00;4981061;28;19914;-82
2020/12/30 10:18:54;;;;;;;9.18;2.97;;;;;;;-11.79;52.19;102119.16;4987374;28;20011;-82
2020/12/30 10:21:30;;;;;;;7.40;3.13;;;;;;;-14.72;52.84;101662.66;4986904;28;20066;-82
2020/12/30 10:24:03;;;;;;;12.43;3.53;;;;;;;-12.82;53.60;101953.75;4984234;28;20078;-83
2020/12/30 10:26:33;;;;;;;6.72;3.22;;;;;;;-13.43;52.17;101862.22;4984597;28;20034;-82
2020/12/30 10:29:01;;;;;;;5.90;2.50;;;;;;;-14.21;51.42;101800.69;4986699;28;20019;-83
2020/12/30 10:31:30;;;;;;;7.07;3.08;;;;;;;-13.45;50.99;101904.03;4986072;28;20102;-83
2020/12/30 10:33:58;;;;;;;7.43;3.60;;;;;;;-13.11;51.47;101963.88;4969862;28;20065;-83
2020/12/30 10:36:32;;;;;;;8.60;5.70;;;;;;;-13.62;50.33;101863.00;4989546;28;20047;-83
2020/12/30 10:39:03;;;;;;;2.80;1.83;;;;;;;-12.93;50.55;101937.34;4991615;28;20062;-82
2020/12/30 10:41:33;;;;;;;10.98;4.35;;;;;;;-14.14;51.18;101838.56;4990557;28;20073;-82
2020/12/30 10:44:01;;;;;;;9.18;3.35;;;;;;;-12.18;51.58;102083.50;4991100;28;20031;-84
2020/12/30 10:46:28;;;;;;;15.68;4.72;;;;;;;-11.42;52.46;102278.72;4991382;28;20035;-83
2020/12/30 10:48:55;;;;;;;4.45;2.47;;;;;;;-13.45;52.66;101908.53;4988098;28;20027;-82
2020/12/30 10:51:22;;;;;;;8.65;5.10;;;;;;;-13.78;53.21;101876.13;4988696;28;20031;-83
2020/12/30 10:53:49;;;;;;;15.73;5.22;;;;;;;-12.43;52.49;102097.97;4988741;28;20066;-82
2020/12/30 10:56:15;;;;;;;11.40;4.10;;;;;;;-12.54;52.25;102128.63;4990624;28;20023;-83
2020/12/30 10:58:45;;;;;;;9.30;4.38;;;;;;;-12.61;53.05;102092.47;4990266;28;20039;-83
2020/12/30 11:01:17;;;;;;;9.18;4.75;;;;;;;-14.53;52.58;101803.72;4989704;28;20050;-83
2020/12/30 11:03:44;;;;;;;9.90;5.50;;;;;;;-14.14;53.43;101913.06;4990088;28;20034;-83
2020/12/30 11:06:11;;;;;;;16.58;6.55;;;;;;;-11.58;53.12;102294.53;4988018;28;20114;-83
2020/12/30 11:08:39;;;;;;;10.32;4.60;;;;;;;-11.85;52.78;102248.50;4989852;28;20026;-81
2020/12/30 11:11:09;;;;;;;11.15;5.18;;;;;;;-12.68;51.39;102030.50;4990998;28;20121;-82
2020/12/30 11:13:38;;;;;;;7.50;5.32;;;;;;;-12.45;52.19;102110.47;5023984;28;20031;-82
2020/12/30 11:16:06;;;;;;;8.43;4.25;;;;;;;-15.38;52.14;101749.41;4990146;28;20027;-83
2020/12/30 11:18:34;;;;;;;15.65;5.13;;;;;;;-12.46;52.99;102220.84;4989549;28;20086;-82
2020/12/30 11:21:03;;;;;;;13.32;4.03;;;;;;;-14.63;52.63;101863.53;4989920;28;20034;-83
2020/12/30 11:23:31;;;;;;;13.25;5.53;;;;;;;-12.27;51.73;102205.81;4990543;28;20042;-82
2020/12/30 11:26:00;;;;;;;7.05;5.93;;;;;;;-13.52;52.43;102043.78;4989930;28;20069;-82
2020/12/30 11:28:30;;;;;;;7.13;3.28;;;;;;;-12.58;53.55;102232.88;4988352;28;20031;-83
2020/12/30 11:30:57;;;;;;;8.32;3.05;;;;;;;-12.95;53.20;102136.56;4988025;28;20061;-82
2020/12/30 11:33:28;;;;;;;12.38;4.72;;;;;;;-11.78;51.90;102311.44;4989334;28;20050;-83
2020/12/30 11:35:54;;;;;;;12.85;6.13;;;;;;;-13.50;51.43;102096.09;4988479;28;20116;-82
2020/12/30 11:38:21;;;;;;;8.75;4.75;;;;;;;-13.85;51.57;102009.56;4987741;28;20034;-82